sensor_id;sensor_type;location;lat;lon;timestamp;P1;durP1;ratioP1;P2;durP2;ratioP2
39524;SDS011;25203;50.754;6.978;2023-08-20T00:00:36;15.70;;;10.68;;
39524;SDS011;25203;50.754;6.978;2023-08-20T00:02:37;18.10;;;14.02;;
39524;SDS011;25203;50.754;6.978;2023-08-20T00:04:39;13.60;;;12.20;;
39524;SDS011;25203;50.754;6.978;2023-08-20T00:06:43;14.57;;;11.63;;
39524;SDS011;25203;50.754;6.978;2023-08-20T00:08:46;14.43;;;12.35;;
39524;SDS011;25203;50.754;6.978;2023-08-20T00:10:47;16.52;;;11.80;;
39524;SDS011;25203;50.754;6.978;2023-08-20T00:12:48;20.17;;;12.52;;
39524;SDS011;25203;50.754;6.978;2023-08-20T00:14:58;14.50;;;11.35;;
39524;SDS011;25203;50.754;6.978;2023-08-20T00:17:05;14.23;;;10.88;;
39524;SDS011;25203;50.754;6.978;2023-08-20T00:19:06;14.20;;;11.70;;
39524;SDS011;25203;50.754;6.978;2023-08-20T00:21:07;13.90;;;12.15;;
39524;SDS011;25203;50.754;6.978;2023-08-20T00:23:08;13.00;;;11.73;;
39524;SDS011;25203;50.754;6.978;2023-08-20T00:25:09;13.13;;;10.48;;
39524;SDS011;25203;50.754;6.978;2023-08-20T00:27:11;16.75;;;13.10;;
39524;SDS011;25203;50.754;6.978;2023-08-20T00:29:11;12.27;;;10.43;;
39524;SDS011;25203;50.754;6.978;2023-08-20T00:31:12;14.57;;;13.07;;
39524;SDS011;25203;50.754;6.978;2023-08-20T00:33:12;15.82;;;13.38;;
39524;SDS011;25203;50.754;6.978;2023-08-20T00:35:14;13.73;;;12.35;;
39524;SDS011;25203;50.754;6.978;2023-08-20T00:37:14;15.85;;;12.68;;
39524;SDS011;25203;50.754;6.978;2023-08-20T00:39:15;25.52;;;11.27;;
39524;SDS011;25203;50.754;6.978;2023-08-20T00:41:16;15.95;;;12.00;;
39524;SDS011;25203;50.754;6.978;2023-08-20T00:43:16;12.80;;;11.38;;
39524;SDS011;25203;50.754;6.978;2023-08-20T00:45:17;15.65;;;11.38;;
39524;SDS011;25203;50.754;6.978;2023-08-20T00:47:18;15.95;;;11.40;;
39524;SDS011;25203;50.754;6.978;2023-08-20T00:49:19;15.30;;;11.18;;
39524;SDS011;25203;50.754;6.978;2023-08-20T00:51:20;13.32;;;11.05;;
39524;SDS011;25203;50.754;6.978;2023-08-20T00:53:22;23.83;;;11.38;;
39524;SDS011;25203;50.754;6.978;2023-08-20T00:55:23;16.00;;;13.55;;
39524;SDS011;25203;50.754;6.978;2023-08-20T00:57:23;21.90;;;17.60;;
39524;SDS011;25203;50.754;6.978;2023-08-20T00:59:25;19.83;;;16.33;;
39524;SDS011;25203;50.754;6.978;2023-08-20T01:01:26;15.05;;;12.80;;
39524;SDS011;25203;50.754;6.978;2023-08-20T01:03:26;13.45;;;10.90;;
39524;SDS011;25203;50.754;6.978;2023-08-20T01:05:29;13.02;;;10.98;;
39524;SDS011;25203;50.754;6.978;2023-08-20T01:10:17;13.90;;;11.90;;
39524;SDS011;25203;50.754;6.978;2023-08-20T01:12:09;14.05;;;11.85;;
39524;SDS011;25203;50.754;6.978;2023-08-20T01:14:16;11.98;;;10.15;;
39524;SDS011;25203;50.754;6.978;2023-08-20T01:16:17;13.75;;;11.15;;
39524;SDS011;25203;50.754;6.978;2023-08-20T01:18:18;13.10;;;11.30;;
39524;SDS011;25203;50.754;6.978;2023-08-20T01:20:19;15.82;;;11.50;;
39524;SDS011;25203;50.754;6.978;2023-08-20T01:29:28;15.40;;;12.15;;
39524;SDS011;25203;50.754;6.978;2023-08-20T01:31:28;13.15;;;11.80;;
39524;SDS011;25203;50.754;6.978;2023-08-20T01:33:30;13.20;;;11.20;;
39524;SDS011;25203;50.754;6.978;2023-08-20T01:35:31;14.15;;;12.75;;
39524;SDS011;25203;50.754;6.978;2023-08-20T01:37:32;23.13;;;17.98;;
39524;SDS011;25203;50.754;6.978;2023-08-20T01:39:32;22.50;;;19.05;;
39524;SDS011;25203;50.754;6.978;2023-08-20T01:41:33;23.40;;;15.85;;
39524;SDS011;25203;50.754;6.978;2023-08-20T01:43:35;23.73;;;16.25;;
39524;SDS011;25203;50.754;6.978;2023-08-20T01:45:35;18.38;;;16.30;;
39524;SDS011;25203;50.754;6.978;2023-08-20T01:47:36;24.23;;;17.92;;
39524;SDS011;25203;50.754;6.978;2023-08-20T01:49:37;23.05;;;17.65;;
39524;SDS011;25203;50.754;6.978;2023-08-20T01:51:37;22.88;;;20.58;;
39524;SDS011;25203;50.754;6.978;2023-08-20T01:53:39;26.88;;;22.10;;
39524;SDS011;25203;50.754;6.978;2023-08-20T01:55:39;30.15;;;25.10;;
39524;SDS011;25203;50.754;6.978;2023-08-20T01:57:40;27.25;;;23.63;;
39524;SDS011;25203;50.754;6.978;2023-08-20T01:59:40;29.85;;;26.63;;
39524;SDS011;25203;50.754;6.978;2023-08-20T02:01:41;33.40;;;25.77;;
39524;SDS011;25203;50.754;6.978;2023-08-20T02:03:41;27.45;;;24.52;;
39524;SDS011;25203;50.754;6.978;2023-08-20T02:05:42;28.35;;;22.35;;
39524;SDS011;25203;50.754;6.978;2023-08-20T02:07:43;26.08;;;21.63;;
39524;SDS011;25203;50.754;6.978;2023-08-20T02:09:43;25.13;;;20.23;;
39524;SDS011;25203;50.754;6.978;2023-08-20T02:11:44;21.80;;;19.27;;
39524;SDS011;25203;50.754;6.978;2023-08-20T02:13:44;28.73;;;19.10;;
39524;SDS011;25203;50.754;6.978;2023-08-20T02:15:45;19.90;;;17.80;;
39524;SDS011;25203;50.754;6.978;2023-08-20T02:17:46;20.52;;;17.58;;
39524;SDS011;25203;50.754;6.978;2023-08-20T02:19:46;20.83;;;18.48;;
39524;SDS011;25203;50.754;6.978;2023-08-20T02:21:47;26.05;;;19.27;;
39524;SDS011;25203;50.754;6.978;2023-08-20T02:23:47;26.38;;;20.40;;
39524;SDS011;25203;50.754;6.978;2023-08-20T02:25:48;22.23;;;19.83;;
39524;SDS011;25203;50.754;6.978;2023-08-20T02:27:49;22.00;;;19.23;;
39524;SDS011;25203;50.754;6.978;2023-08-20T02:29:49;23.58;;;20.67;;
39524;SDS011;25203;50.754;6.978;2023-08-20T02:31:50;20.17;;;18.02;;
39524;SDS011;25203;50.754;6.978;2023-08-20T02:33:50;27.63;;;22.88;;
39524;SDS011;25203;50.754;6.978;2023-08-20T02:35:51;25.13;;;20.75;;
39524;SDS011;25203;50.754;6.978;2023-08-20T02:37:52;25.40;;;22.25;;
39524;SDS011;25203;50.754;6.978;2023-08-20T02:39:52;26.23;;;20.88;;
39524;SDS011;25203;50.754;6.978;2023-08-20T02:41:53;19.42;;;17.35;;
39524;SDS011;25203;50.754;6.978;2023-08-20T02:43:54;26.08;;;19.70;;
39524;SDS011;25203;50.754;6.978;2023-08-20T02:45:54;23.02;;;20.38;;
39524;SDS011;25203;50.754;6.978;2023-08-20T02:47:55;23.05;;;19.55;;
39524;SDS011;25203;50.754;6.978;2023-08-20T02:49:56;18.67;;;16.70;;
39524;SDS011;25203;50.754;6.978;2023-08-20T02:51:56;24.30;;;19.38;;
39524;SDS011;25203;50.754;6.978;2023-08-20T02:53:57;24.80;;;21.48;;
39524;SDS011;25203;50.754;6.978;2023-08-20T02:55:57;23.10;;;19.50;;
39524;SDS011;25203;50.754;6.978;2023-08-20T02:57:58;21.63;;;18.02;;
39524;SDS011;25203;50.754;6.978;2023-08-20T02:59:59;22.65;;;19.77;;
39524;SDS011;25203;50.754;6.978;2023-08-20T03:02:00;23.00;;;19.45;;
39524;SDS011;25203;50.754;6.978;2023-08-20T03:04:01;21.45;;;19.27;;
39524;SDS011;25203;50.754;6.978;2023-08-20T03:06:02;20.40;;;18.35;;
39524;SDS011;25203;50.754;6.978;2023-08-20T03:08:02;19.50;;;17.40;;
39524;SDS011;25203;50.754;6.978;2023-08-20T03:10:03;21.85;;;17.98;;
39524;SDS011;25203;50.754;6.978;2023-08-20T03:12:04;19.75;;;17.58;;
39524;SDS011;25203;50.754;6.978;2023-08-20T03:14:05;21.42;;;19.13;;
39524;SDS011;25203;50.754;6.978;2023-08-20T03:16:06;20.08;;;16.52;;
39524;SDS011;25203;50.754;6.978;2023-08-20T03:18:06;17.80;;;15.77;;
39524;SDS011;25203;50.754;6.978;2023-08-20T03:20:07;20.00;;;17.98;;
39524;SDS011;25203;50.754;6.978;2023-08-20T03:22:09;22.95;;;17.88;;
39524;SDS011;25203;50.754;6.978;2023-08-20T03:24:09;20.23;;;16.75;;
39524;SDS011;25203;50.754;6.978;2023-08-20T03:26:10;18.58;;;16.67;;
39524;SDS011;25203;50.754;6.978;2023-08-20T03:28:11;17.00;;;15.27;;
39524;SDS011;25203;50.754;6.978;2023-08-20T03:30:11;16.73;;;15.10;;
39524;SDS011;25203;50.754;6.978;2023-08-20T03:32:12;18.90;;;15.27;;
39524;SDS011;25203;50.754;6.978;2023-08-20T03:34:13;23.92;;;16.23;;
39524;SDS011;25203;50.754;6.978;2023-08-20T03:36:13;17.63;;;14.80;;
39524;SDS011;25203;50.754;6.978;2023-08-20T03:38:14;15.57;;;13.98;;
39524;SDS011;25203;50.754;6.978;2023-08-20T03:40:15;16.77;;;15.02;;
39524;SDS011;25203;50.754;6.978;2023-08-20T03:42:15;17.92;;;15.98;;
39524;SDS011;25203;50.754;6.978;2023-08-20T03:44:16;21.08;;;17.23;;
39524;SDS011;25203;50.754;6.978;2023-08-20T03:46:16;21.20;;;16.42;;
39524;SDS011;25203;50.754;6.978;2023-08-20T03:48:17;18.70;;;16.73;;
39524;SDS011;25203;50.754;6.978;2023-08-20T03:50:18;19.20;;;15.27;;
39524;SDS011;25203;50.754;6.978;2023-08-20T03:52:18;21.17;;;16.33;;
39524;SDS011;25203;50.754;6.978;2023-08-20T03:54:19;17.55;;;14.95;;
39524;SDS011;25203;50.754;6.978;2023-08-20T03:56:20;17.77;;;15.98;;
39524;SDS011;25203;50.754;6.978;2023-08-20T03:58:20;18.13;;;16.05;;
39524;SDS011;25203;50.754;6.978;2023-08-20T04:00:21;18.75;;;16.50;;
39524;SDS011;25203;50.754;6.978;2023-08-20T04:02:21;17.65;;;15.80;;
39524;SDS011;25203;50.754;6.978;2023-08-20T04:04:23;20.92;;;16.88;;
39524;SDS011;25203;50.754;6.978;2023-08-20T04:06:23;21.25;;;16.17;;
39524;SDS011;25203;50.754;6.978;2023-08-20T04:08:24;17.65;;;15.02;;
39524;SDS011;25203;50.754;6.978;2023-08-20T04:10:24;20.10;;;15.27;;
39524;SDS011;25203;50.754;6.978;2023-08-20T04:12:25;15.10;;;13.68;;
39524;SDS011;25203;50.754;6.978;2023-08-20T04:14:26;21.80;;;15.43;;
39524;SDS011;25203;50.754;6.978;2023-08-20T04:16:27;16.10;;;13.98;;
39524;SDS011;25203;50.754;6.978;2023-08-20T04:18:29;20.60;;;15.07;;
39524;SDS011;25203;50.754;6.978;2023-08-20T04:20:30;17.27;;;13.90;;
39524;SDS011;25203;50.754;6.978;2023-08-20T04:22:30;15.40;;;13.10;;
39524;SDS011;25203;50.754;6.978;2023-08-20T04:24:31;20.58;;;14.98;;
39524;SDS011;25203;50.754;6.978;2023-08-20T04:26:32;15.52;;;13.75;;
39524;SDS011;25203;50.754;6.978;2023-08-20T04:28:32;20.23;;;14.10;;
39524;SDS011;25203;50.754;6.978;2023-08-20T04:30:34;15.35;;;13.75;;
39524;SDS011;25203;50.754;6.978;2023-08-20T04:32:35;15.52;;;13.68;;
39524;SDS011;25203;50.754;6.978;2023-08-20T04:34:36;14.55;;;13.15;;
39524;SDS011;25203;50.754;6.978;2023-08-20T04:36:37;13.68;;;11.75;;
39524;SDS011;25203;50.754;6.978;2023-08-20T04:38:37;15.00;;;11.70;;
39524;SDS011;25203;50.754;6.978;2023-08-20T04:40:38;14.25;;;12.25;;
39524;SDS011;25203;50.754;6.978;2023-08-20T04:42:38;17.40;;;13.55;;
39524;SDS011;25203;50.754;6.978;2023-08-20T04:44:39;15.07;;;13.15;;
39524;SDS011;25203;50.754;6.978;2023-08-20T04:46:40;19.13;;;13.85;;
39524;SDS011;25203;50.754;6.978;2023-08-20T04:48:40;17.10;;;14.00;;
39524;SDS011;25203;50.754;6.978;2023-08-20T04:50:41;14.80;;;13.02;;
39524;SDS011;25203;50.754;6.978;2023-08-20T04:52:41;14.90;;;13.48;;
39524;SDS011;25203;50.754;6.978;2023-08-20T04:54:42;16.65;;;14.27;;
39524;SDS011;25203;50.754;6.978;2023-08-20T04:56:43;15.70;;;14.10;;
39524;SDS011;25203;50.754;6.978;2023-08-20T04:58:43;17.52;;;14.57;;
39524;SDS011;25203;50.754;6.978;2023-08-20T05:00:44;15.82;;;14.13;;
39524;SDS011;25203;50.754;6.978;2023-08-20T05:02:44;13.57;;;12.18;;
39524;SDS011;25203;50.754;6.978;2023-08-20T05:04:45;17.45;;;13.70;;
39524;SDS011;25203;50.754;6.978;2023-08-20T05:06:46;20.60;;;14.95;;
39524;SDS011;25203;50.754;6.978;2023-08-20T05:08:46;15.20;;;13.70;;
39524;SDS011;25203;50.754;6.978;2023-08-20T05:10:49;15.27;;;12.48;;
39524;SDS011;25203;50.754;6.978;2023-08-20T05:12:50;14.82;;;12.60;;
39524;SDS011;25203;50.754;6.978;2023-08-20T05:14:51;19.65;;;14.85;;
39524;SDS011;25203;50.754;6.978;2023-08-20T05:16:51;19.70;;;15.57;;
39524;SDS011;25203;50.754;6.978;2023-08-20T05:18:52;16.48;;;14.55;;
39524;SDS011;25203;50.754;6.978;2023-08-20T05:20:53;17.58;;;13.02;;
39524;SDS011;25203;50.754;6.978;2023-08-20T05:22:53;16.52;;;14.55;;
39524;SDS011;25203;50.754;6.978;2023-08-20T05:24:54;17.48;;;14.10;;
39524;SDS011;25203;50.754;6.978;2023-08-20T05:27:13;16.00;;;14.38;;
39524;SDS011;25203;50.754;6.978;2023-08-20T05:29:16;17.88;;;13.63;;
39524;SDS011;25203;50.754;6.978;2023-08-20T05:31:16;14.60;;;13.15;;
39524;SDS011;25203;50.754;6.978;2023-08-20T05:33:17;15.93;;;14.02;;
39524;SDS011;25203;50.754;6.978;2023-08-20T05:35:17;15.30;;;13.70;;
39524;SDS011;25203;50.754;6.978;2023-08-20T05:37:18;18.05;;;14.13;;
39524;SDS011;25203;50.754;6.978;2023-08-20T05:39:18;15.50;;;12.30;;
39524;SDS011;25203;50.754;6.978;2023-08-20T05:41:19;14.32;;;12.82;;
39524;SDS011;25203;50.754;6.978;2023-08-20T05:43:20;18.80;;;15.45;;
39524;SDS011;25203;50.754;6.978;2023-08-20T05:45:20;19.17;;;15.10;;
39524;SDS011;25203;50.754;6.978;2023-08-20T05:47:21;18.67;;;13.90;;
39524;SDS011;25203;50.754;6.978;2023-08-20T05:49:21;18.45;;;14.23;;
39524;SDS011;25203;50.754;6.978;2023-08-20T05:51:22;17.90;;;14.75;;
39524;SDS011;25203;50.754;6.978;2023-08-20T05:53:23;15.18;;;13.15;;
39524;SDS011;25203;50.754;6.978;2023-08-20T05:55:23;19.55;;;15.57;;
39524;SDS011;25203;50.754;6.978;2023-08-20T05:57:24;21.38;;;16.02;;
39524;SDS011;25203;50.754;6.978;2023-08-20T05:59:25;17.05;;;13.02;;
39524;SDS011;25203;50.754;6.978;2023-08-20T06:01:25;16.73;;;13.90;;
39524;SDS011;25203;50.754;6.978;2023-08-20T06:03:26;18.80;;;13.10;;
39524;SDS011;25203;50.754;6.978;2023-08-20T06:05:27;16.85;;;13.82;;
39524;SDS011;25203;50.754;6.978;2023-08-20T06:07:27;20.75;;;14.02;;
39524;SDS011;25203;50.754;6.978;2023-08-20T06:09:28;17.10;;;13.75;;
39524;SDS011;25203;50.754;6.978;2023-08-20T06:11:29;19.70;;;14.35;;
39524;SDS011;25203;50.754;6.978;2023-08-20T06:13:29;14.52;;;11.05;;
39524;SDS011;25203;50.754;6.978;2023-08-20T06:15:30;19.48;;;13.60;;
39524;SDS011;25203;50.754;6.978;2023-08-20T06:17:31;20.88;;;16.17;;
39524;SDS011;25203;50.754;6.978;2023-08-20T06:19:31;24.13;;;15.70;;
39524;SDS011;25203;50.754;6.978;2023-08-20T06:21:32;23.30;;;18.30;;
39524;SDS011;25203;50.754;6.978;2023-08-20T06:23:33;21.73;;;16.10;;
39524;SDS011;25203;50.754;6.978;2023-08-20T06:25:33;18.95;;;12.50;;
39524;SDS011;25203;50.754;6.978;2023-08-20T06:27:34;15.40;;;11.20;;
39524;SDS011;25203;50.754;6.978;2023-08-20T06:29:35;19.23;;;12.68;;
39524;SDS011;25203;50.754;6.978;2023-08-20T06:31:35;16.88;;;10.80;;
39524;SDS011;25203;50.754;6.978;2023-08-20T06:33:36;21.05;;;11.52;;
39524;SDS011;25203;50.754;6.978;2023-08-20T06:35:36;15.63;;;10.85;;
39524;SDS011;25203;50.754;6.978;2023-08-20T06:37:38;16.48;;;10.80;;
39524;SDS011;25203;50.754;6.978;2023-08-20T06:39:40;13.07;;;8.30;;
39524;SDS011;25203;50.754;6.978;2023-08-20T06:41:41;11.55;;;8.80;;
39524;SDS011;25203;50.754;6.978;2023-08-20T06:43:42;17.65;;;9.25;;
39524;SDS011;25203;50.754;6.978;2023-08-20T06:45:42;16.17;;;9.40;;
39524;SDS011;25203;50.754;6.978;2023-08-20T06:47:43;14.23;;;9.15;;
39524;SDS011;25203;50.754;6.978;2023-08-20T06:49:43;15.32;;;8.70;;
39524;SDS011;25203;50.754;6.978;2023-08-20T06:51:44;14.55;;;9.27;;
39524;SDS011;25203;50.754;6.978;2023-08-20T06:53:44;16.58;;;10.45;;
39524;SDS011;25203;50.754;6.978;2023-08-20T06:55:45;14.88;;;9.65;;
39524;SDS011;25203;50.754;6.978;2023-08-20T06:57:46;13.60;;;8.65;;
39524;SDS011;25203;50.754;6.978;2023-08-20T06:59:46;12.45;;;8.23;;
39524;SDS011;25203;50.754;6.978;2023-08-20T07:01:47;12.57;;;7.45;;
39524;SDS011;25203;50.754;6.978;2023-08-20T07:03:48;13.32;;;9.10;;
39524;SDS011;25203;50.754;6.978;2023-08-20T07:05:49;8.82;;;7.90;;
39524;SDS011;25203;50.754;6.978;2023-08-20T07:07:49;12.50;;;9.32;;
39524;SDS011;25203;50.754;6.978;2023-08-20T07:09:50;12.52;;;8.43;;
39524;SDS011;25203;50.754;6.978;2023-08-20T07:11:50;12.40;;;9.02;;
39524;SDS011;25203;50.754;6.978;2023-08-20T07:13:51;16.48;;;11.88;;
39524;SDS011;25203;50.754;6.978;2023-08-20T07:15:52;16.25;;;10.80;;
39524;SDS011;25203;50.754;6.978;2023-08-20T07:17:52;17.98;;;12.20;;
39524;SDS011;25203;50.754;6.978;2023-08-20T07:19:53;17.20;;;11.43;;
39524;SDS011;25203;50.754;6.978;2023-08-20T07:21:54;26.67;;;18.08;;
39524;SDS011;25203;50.754;6.978;2023-08-20T07:23:54;17.95;;;15.18;;
39524;SDS011;25203;50.754;6.978;2023-08-20T07:26:05;16.60;;;14.48;;
39524;SDS011;25203;50.754;6.978;2023-08-20T07:28:07;23.33;;;16.58;;
39524;SDS011;25203;50.754;6.978;2023-08-20T07:30:08;16.50;;;12.65;;
39524;SDS011;25203;50.754;6.978;2023-08-20T07:32:09;18.35;;;12.75;;
39524;SDS011;25203;50.754;6.978;2023-08-20T07:34:10;18.35;;;14.45;;
39524;SDS011;25203;50.754;6.978;2023-08-20T07:36:11;16.63;;;12.63;;
39524;SDS011;25203;50.754;6.978;2023-08-20T07:38:11;19.40;;;15.02;;
39524;SDS011;25203;50.754;6.978;2023-08-20T07:40:12;20.65;;;14.57;;
39524;SDS011;25203;50.754;6.978;2023-08-20T07:42:15;13.35;;;11.88;;
39524;SDS011;25203;50.754;6.978;2023-08-20T07:44:18;15.52;;;11.07;;
39524;SDS011;25203;50.754;6.978;2023-08-20T07:46:18;14.02;;;10.85;;
39524;SDS011;25203;50.754;6.978;2023-08-20T07:48:19;13.88;;;10.60;;
39524;SDS011;25203;50.754;6.978;2023-08-20T07:50:20;15.82;;;11.32;;
39524;SDS011;25203;50.754;6.978;2023-08-20T07:52:20;19.83;;;11.32;;
39524;SDS011;25203;50.754;6.978;2023-08-20T07:54:21;18.70;;;12.75;;
39524;SDS011;25203;50.754;6.978;2023-08-20T07:56:21;10.75;;;9.07;;
39524;SDS011;25203;50.754;6.978;2023-08-20T07:58:22;13.05;;;9.95;;
39524;SDS011;25203;50.754;6.978;2023-08-20T08:00:23;14.50;;;10.73;;
39524;SDS011;25203;50.754;6.978;2023-08-20T08:02:24;14.55;;;10.35;;
39524;SDS011;25203;50.754;6.978;2023-08-20T08:04:24;13.73;;;9.73;;
39524;SDS011;25203;50.754;6.978;2023-08-20T08:06:25;8.35;;;6.75;;
39524;SDS011;25203;50.754;6.978;2023-08-20T08:08:26;13.65;;;9.10;;
39524;SDS011;25203;50.754;6.978;2023-08-20T08:10:26;10.80;;;7.18;;
39524;SDS011;25203;50.754;6.978;2023-08-20T08:12:27;10.90;;;6.28;;
39524;SDS011;25203;50.754;6.978;2023-08-20T08:14:28;9.60;;;7.07;;
39524;SDS011;25203;50.754;6.978;2023-08-20T08:16:28;8.93;;;6.85;;
39524;SDS011;25203;50.754;6.978;2023-08-20T08:18:29;8.07;;;5.47;;
39524;SDS011;25203;50.754;6.978;2023-08-20T08:20:30;10.32;;;8.27;;
39524;SDS011;25203;50.754;6.978;2023-08-20T08:22:49;5.50;;;4.90;;
39524;SDS011;25203;50.754;6.978;2023-08-20T08:24:49;10.25;;;6.90;;
39524;SDS011;25203;50.754;6.978;2023-08-20T08:26:50;6.65;;;4.18;;
39524;SDS011;25203;50.754;6.978;2023-08-20T08:28:51;7.38;;;4.53;;
39524;SDS011;25203;50.754;6.978;2023-08-20T08:30:51;6.13;;;3.85;;
39524;SDS011;25203;50.754;6.978;2023-08-20T08:32:52;7.32;;;5.82;;
39524;SDS011;25203;50.754;6.978;2023-08-20T08:34:52;4.90;;;4.47;;
39524;SDS011;25203;50.754;6.978;2023-08-20T08:36:53;6.35;;;4.05;;
39524;SDS011;25203;50.754;6.978;2023-08-20T08:38:53;9.63;;;6.13;;
39524;SDS011;25203;50.754;6.978;2023-08-20T08:40:55;5.47;;;4.80;;
39524;SDS011;25203;50.754;6.978;2023-08-20T08:42:56;8.60;;;5.00;;
39524;SDS011;25203;50.754;6.978;2023-08-20T08:44:58;7.05;;;5.20;;
39524;SDS011;25203;50.754;6.978;2023-08-20T08:47:04;5.13;;;4.63;;
39524;SDS011;25203;50.754;6.978;2023-08-20T08:49:05;8.65;;;5.10;;
39524;SDS011;25203;50.754;6.978;2023-08-20T08:51:06;6.10;;;4.93;;
39524;SDS011;25203;50.754;6.978;2023-08-20T08:53:07;6.07;;;4.75;;
39524;SDS011;25203;50.754;6.978;2023-08-20T08:55:08;6.00;;;5.10;;
39524;SDS011;25203;50.754;6.978;2023-08-20T08:57:09;6.28;;;5.35;;
39524;SDS011;25203;50.754;6.978;2023-08-20T08:59:10;9.00;;;5.90;;
39524;SDS011;25203;50.754;6.978;2023-08-20T09:01:10;5.90;;;4.70;;
39524;SDS011;25203;50.754;6.978;2023-08-20T09:03:11;4.38;;;3.80;;
39524;SDS011;25203;50.754;6.978;2023-08-20T09:05:14;9.35;;;5.35;;
39524;SDS011;25203;50.754;6.978;2023-08-20T09:07:15;8.10;;;5.15;;
39524;SDS011;25203;50.754;6.978;2023-08-20T09:09:16;6.85;;;5.40;;
39524;SDS011;25203;50.754;6.978;2023-08-20T09:11:18;8.68;;;5.70;;
39524;SDS011;25203;50.754;6.978;2023-08-20T09:13:22;8.52;;;6.50;;
39524;SDS011;25203;50.754;6.978;2023-08-20T09:15:35;12.00;;;7.25;;
39524;SDS011;25203;50.754;6.978;2023-08-20T09:17:35;12.00;;;6.60;;
39524;SDS011;25203;50.754;6.978;2023-08-20T09:19:36;6.30;;;5.20;;
39524;SDS011;25203;50.754;6.978;2023-08-20T09:21:37;6.32;;;5.03;;
39524;SDS011;25203;50.754;6.978;2023-08-20T09:23:38;8.30;;;5.60;;
39524;SDS011;25203;50.754;6.978;2023-08-20T09:25:39;7.85;;;5.97;;
39524;SDS011;25203;50.754;6.978;2023-08-20T09:27:40;8.07;;;4.68;;
39524;SDS011;25203;50.754;6.978;2023-08-20T09:29:44;6.82;;;5.50;;
39524;SDS011;25203;50.754;6.978;2023-08-20T09:31:46;6.55;;;5.20;;
39524;SDS011;25203;50.754;6.978;2023-08-20T09:33:51;8.93;;;6.18;;
39524;SDS011;25203;50.754;6.978;2023-08-20T09:35:52;5.70;;;4.90;;
39524;SDS011;25203;50.754;6.978;2023-08-20T09:37:59;6.93;;;5.32;;
39524;SDS011;25203;50.754;6.978;2023-08-20T09:40:01;6.25;;;4.97;;
39524;SDS011;25203;50.754;6.978;2023-08-20T09:42:03;7.43;;;5.35;;
39524;SDS011;25203;50.754;6.978;2023-08-20T09:44:05;8.27;;;5.35;;
39524;SDS011;25203;50.754;6.978;2023-08-20T09:46:08;13.10;;;7.15;;
39524;SDS011;25203;50.754;6.978;2023-08-20T09:48:11;8.93;;;7.30;;
39524;SDS011;25203;50.754;6.978;2023-08-20T09:50:13;10.05;;;7.15;;
39524;SDS011;25203;50.754;6.978;2023-08-20T09:52:40;9.50;;;6.75;;
39524;SDS011;25203;50.754;6.978;2023-08-20T09:55:00;12.32;;;7.75;;
39524;SDS011;25203;50.754;6.978;2023-08-20T09:57:15;8.95;;;6.22;;
39524;SDS011;25203;50.754;6.978;2023-08-20T09:59:39;8.25;;;5.80;;
39524;SDS011;25203;50.754;6.978;2023-08-20T10:01:41;7.05;;;6.18;;
39524;SDS011;25203;50.754;6.978;2023-08-20T10:03:42;10.73;;;7.22;;
39524;SDS011;25203;50.754;6.978;2023-08-20T10:05:43;7.90;;;6.85;;
39524;SDS011;25203;50.754;6.978;2023-08-20T10:07:47;12.23;;;7.20;;
39524;SDS011;25203;50.754;6.978;2023-08-20T10:09:49;5.88;;;5.35;;
39524;SDS011;25203;50.754;6.978;2023-08-20T10:11:51;8.00;;;6.20;;
39524;SDS011;25203;50.754;6.978;2023-08-20T10:13:52;6.80;;;5.65;;
39524;SDS011;25203;50.754;6.978;2023-08-20T10:15:54;6.90;;;6.20;;
39524;SDS011;25203;50.754;6.978;2023-08-20T10:17:55;7.47;;;6.53;;
39524;SDS011;25203;50.754;6.978;2023-08-20T10:19:58;7.82;;;6.30;;
39524;SDS011;25203;50.754;6.978;2023-08-20T10:22:01;8.45;;;5.95;;
39524;SDS011;25203;50.754;6.978;2023-08-20T10:24:06;8.73;;;6.15;;
39524;SDS011;25203;50.754;6.978;2023-08-20T10:26:07;7.65;;;6.15;;
39524;SDS011;25203;50.754;6.978;2023-08-20T10:28:22;9.68;;;6.25;;
39524;SDS011;25203;50.754;6.978;2023-08-20T10:30:25;7.20;;;6.18;;
39524;SDS011;25203;50.754;6.978;2023-08-20T10:34:58;9.63;;;6.05;;
39524;SDS011;25203;50.754;6.978;2023-08-20T10:37:06;8.68;;;6.53;;
39524;SDS011;25203;50.754;6.978;2023-08-20T10:39:16;8.70;;;7.10;;
39524;SDS011;25203;50.754;6.978;2023-08-20T10:41:26;7.97;;;6.05;;
39524;SDS011;25203;50.754;6.978;2023-08-20T10:43:30;8.60;;;6.85;;
39524;SDS011;25203;50.754;6.978;2023-08-20T10:45:32;9.20;;;7.47;;
39524;SDS011;25203;50.754;6.978;2023-08-20T10:47:44;9.00;;;7.25;;
39524;SDS011;25203;50.754;6.978;2023-08-20T10:49:45;7.80;;;7.03;;
39524;SDS011;25203;50.754;6.978;2023-08-20T10:51:51;6.63;;;5.97;;
39524;SDS011;25203;50.754;6.978;2023-08-20T10:56:13;10.98;;;7.53;;
39524;SDS011;25203;50.754;6.978;2023-08-20T10:58:15;9.38;;;8.43;;
39524;SDS011;25203;50.754;6.978;2023-08-20T11:00:17;8.65;;;7.75;;
39524;SDS011;25203;50.754;6.978;2023-08-20T11:02:18;10.70;;;8.38;;
39524;SDS011;25203;50.754;6.978;2023-08-20T11:04:21;9.48;;;8.38;;
39524;SDS011;25203;50.754;6.978;2023-08-20T11:06:29;8.95;;;8.07;;
39524;SDS011;25203;50.754;6.978;2023-08-20T11:08:32;8.65;;;7.70;;
39524;SDS011;25203;50.754;6.978;2023-08-20T11:10:33;8.07;;;7.22;;
39524;SDS011;25203;50.754;6.978;2023-08-20T11:12:33;9.65;;;7.68;;
39524;SDS011;25203;50.754;6.978;2023-08-20T11:14:34;9.60;;;7.15;;
39524;SDS011;25203;50.754;6.978;2023-08-20T11:16:35;8.63;;;6.72;;
39524;SDS011;25203;50.754;6.978;2023-08-20T11:18:38;9.10;;;6.22;;
39524;SDS011;25203;50.754;6.978;2023-08-20T11:20:39;7.72;;;6.90;;
39524;SDS011;25203;50.754;6.978;2023-08-20T11:22:40;10.07;;;6.88;;
39524;SDS011;25203;50.754;6.978;2023-08-20T11:24:42;8.02;;;7.22;;
39524;SDS011;25203;50.754;6.978;2023-08-20T11:26:43;11.93;;;8.07;;
39524;SDS011;25203;50.754;6.978;2023-08-20T11:28:47;8.07;;;7.28;;
39524;SDS011;25203;50.754;6.978;2023-08-20T11:30:47;8.73;;;7.55;;
39524;SDS011;25203;50.754;6.978;2023-08-20T11:32:49;8.38;;;7.20;;
39524;SDS011;25203;50.754;6.978;2023-08-20T11:34:52;10.80;;;7.20;;
39524;SDS011;25203;50.754;6.978;2023-08-20T11:36:54;7.50;;;6.78;;
39524;SDS011;25203;50.754;6.978;2023-08-20T11:38:56;15.35;;;7.25;;
39524;SDS011;25203;50.754;6.978;2023-08-20T11:40:57;8.02;;;6.60;;
39524;SDS011;25203;50.754;6.978;2023-08-20T11:43:02;8.85;;;7.07;;
39524;SDS011;25203;50.754;6.978;2023-08-20T11:45:02;7.07;;;6.38;;
39524;SDS011;25203;50.754;6.978;2023-08-20T11:47:12;7.20;;;6.45;;
39524;SDS011;25203;50.754;6.978;2023-08-20T11:49:14;6.97;;;6.20;;
39524;SDS011;25203;50.754;6.978;2023-08-20T11:51:15;6.78;;;5.85;;
39524;SDS011;25203;50.754;6.978;2023-08-20T11:53:17;7.03;;;6.32;;
39524;SDS011;25203;50.754;6.978;2023-08-20T11:55:23;6.97;;;6.28;;
39524;SDS011;25203;50.754;6.978;2023-08-20T11:57:24;8.43;;;6.57;;
39524;SDS011;25203;50.754;6.978;2023-08-20T11:59:25;6.53;;;5.93;;
39524;SDS011;25203;50.754;6.978;2023-08-20T12:01:29;6.47;;;5.82;;
39524;SDS011;25203;50.754;6.978;2023-08-20T12:03:30;6.72;;;5.45;;
39524;SDS011;25203;50.754;6.978;2023-08-20T12:05:31;6.03;;;5.43;;
39524;SDS011;25203;50.754;6.978;2023-08-20T12:07:32;7.45;;;5.32;;
39524;SDS011;25203;50.754;6.978;2023-08-20T12:09:32;6.78;;;5.50;;
39524;SDS011;25203;50.754;6.978;2023-08-20T12:11:33;7.20;;;4.82;;
39524;SDS011;25203;50.754;6.978;2023-08-20T12:13:34;5.28;;;4.78;;